Terminal Aerodrome Forecast
Issued by NWS Chicago, IL

Home | Current Version | Previous Version | Graphics & Text | Print | Product List | Glossary On
Versions: 1 2 3 4 5 6 7 8 9 10 11 12 13 14 15 16 17 18 19 20 21 22 23 24 25 26 27 28 29 30 31 32 33 34
000
FTUS43 KLOT 012300
TAFRFD
TAF
KRFD 012338Z 0200/0224 24010KT P6SM VCTS BKN045CB
      TEMPO 0200/0201 5SM SHRA OVC045
     FM020100 27007KT P6SM FEW045
     FM020400 VRB03KT P6SM BKN150
     FM021600 26007KT P6SM FEW050 FEW250=

USA.gov is the U.S. government's official web portal to all federal, state and local government web resources and services.